Weather at Vila Real Airport

Public forecast

Using degrees Celsius for public forecast. Weather courtesy of forecast.io.

Closest aviation weather report (METAR) to Vila Real Airport

Closest report is Francisco de Sá Carneiro Airport, 43.4 nm (80.4 km) W. Retrieved 2020/10/22 23:30 UTC (0 seconds ago):

LPPR 222330Z 16004KT 9999 SCT020 BKN030 13/13 Q1017

Closest aviation forecast (TAF) to Vila Real Airport

Closest forecast is Francisco de Sá Carneiro Airport, 43.4 nm (80.4 km) W. Retrieved 2020/10/22 18:18 UTC (5 hours ago):

TAF LPPR 221700Z 2218/2318 22007KT 9999 SCT018 TEMPO 2218/2303 5000 SHRA BKN012 FEW022TCU PROB30 TEMPO 2218/2220 VRB10G20KT 3000 TSRA BKN008 SCT018CB BECMG 2221/2224 VRB02KT BECMG 2308/2311 19010KT SCT030